Time;durP1;ratioP1;P1;durP2;ratioP2;P2;SDS_P1;SDS_P2;PMS_P1;PMS_P2;Temp;Humidity;BMP_temperature;BMP_pressure;BME280_temperature;BME280_humidity;BME280_pressure;Samples;Min_cycle;Max_cycle;Signal;HPM_P1;HPM_P2
2023/12/09 00:01:27;;;;;;;17.00;9.20;;;4.70;99.90;;;;;;5023018;28;20033;-81
2023/12/09 00:03:52;;;;;;;13.18;8.48;;;4.70;99.90;;;;;;5023934;28;20021;-81
2023/12/09 00:06:19;;;;;;;13.30;8.20;;;4.70;99.90;;;;;;5004902;28;20022;-86
2023/12/09 00:08:45;;;;;;;10.55;6.97;;;4.80;99.90;;;;;;5023393;28;20116;-81
2023/12/09 00:11:11;;;;;;;14.30;8.23;;;4.80;99.90;;;;;;5021196;28;20109;-82
2023/12/09 00:13:36;;;;;;;12.25;7.55;;;4.80;99.90;;;;;;5021868;28;20364;-85
2023/12/09 00:16:03;;;;;;;13.43;8.18;;;4.80;99.90;;;;;;5024502;28;20033;-84
2023/12/09 00:18:30;;;;;;;12.13;8.10;;;4.80;99.90;;;;;;5024028;28;20031;-83
2023/12/09 00:20:55;;;;;;;12.90;7.90;;;4.80;99.90;;;;;;5020373;28;20068;-83
2023/12/09 00:23:21;;;;;;;12.70;8.68;;;4.80;99.90;;;;;;5022332;28;20435;-89
2023/12/09 00:25:47;;;;;;;15.40;9.25;;;4.80;99.90;;;;;;5018619;28;20037;-87
2023/12/09 00:28:13;;;;;;;15.48;9.13;;;4.70;99.90;;;;;;5022890;28;20036;-84
2023/12/09 00:30:38;;;;;;;15.52;8.45;;;4.80;99.90;;;;;;5024133;28;20108;-82
2023/12/09 00:33:05;;;;;;;12.05;8.05;;;4.80;99.90;;;;;;5022626;28;20105;-83
2023/12/09 00:35:30;;;;;;;12.05;7.97;;;4.80;99.90;;;;;;5016724;28;20022;-81
2023/12/09 00:37:56;;;;;;;16.23;8.75;;;4.90;99.90;;;;;;5015731;28;20022;-84
2023/12/09 00:40:22;;;;;;;18.75;9.45;;;4.80;99.90;;;;;;5020913;28;20079;-83
2023/12/09 00:42:48;;;;;;;15.05;9.18;;;4.80;99.90;;;;;;5023392;28;20053;-85
2023/12/09 00:45:16;;;;;;;13.27;8.95;;;4.80;99.90;;;;;;5022067;28;22156;-85
2023/12/09 00:47:42;;;;;;;16.60;9.70;;;4.80;99.90;;;;;;5020801;28;20036;-85
2023/12/09 00:50:08;;;;;;;18.33;10.18;;;4.80;99.90;;;;;;5022828;28;20022;-83
2023/12/09 00:52:34;;;;;;;20.05;10.65;;;4.80;99.90;;;;;;5022968;28;20386;-83
2023/12/09 00:55:00;;;;;;;15.60;10.10;;;4.80;99.90;;;;;;5005316;28;20044;-81
2023/12/09 00:57:26;;;;;;;16.35;10.02;;;4.80;99.90;;;;;;5023084;28;20077;-81
2023/12/09 00:59:52;;;;;;;20.48;11.27;;;4.80;99.90;;;;;;5021897;28;20052;-84
2023/12/09 01:02:18;;;;;;;20.77;12.55;;;4.80;99.90;;;;;;5021515;28;20032;-84
2023/12/09 01:04:45;;;;;;;23.73;12.93;;;4.80;99.90;;;;;;5024661;28;20308;-82
2023/12/09 01:07:11;;;;;;;24.83;12.40;;;4.70;99.90;;;;;;5019820;28;20048;-86
2023/12/09 01:09:36;;;;;;;28.33;14.77;;;4.60;99.90;;;;;;5019118;28;20070;-84
2023/12/09 01:12:02;;;;;;;30.23;14.73;;;4.60;99.90;;;;;;5016783;28;20494;-84
2023/12/09 01:14:28;;;;;;;26.95;13.95;;;4.60;99.90;;;;;;5024263;28;20032;-81
2023/12/09 01:16:53;;;;;;;30.75;14.43;;;4.60;99.90;;;;;;5003460;28;20037;-83
2023/12/09 01:19:19;;;;;;;30.48;14.20;;;4.50;99.90;;;;;;5013599;28;20026;-85
2023/12/09 01:21:44;;;;;;;26.98;14.18;;;4.50;99.90;;;;;;5021687;28;20048;-82
2023/12/09 01:24:10;;;;;;;34.55;14.02;;;4.40;99.90;;;;;;5023997;28;20025;-87
2023/12/09 01:26:36;;;;;;;31.33;14.73;;;4.40;99.90;;;;;;5019175;28;20058;-82
2023/12/09 01:29:03;;;;;;;27.98;14.13;;;4.40;99.90;;;;;;5015545;28;20103;-81
2023/12/09 01:31:30;;;;;;;27.98;14.00;;;4.40;99.90;;;;;;5022976;28;20447;-85
2023/12/09 01:33:58;;;;;;;34.33;14.98;;;4.40;99.90;;;;;;5022559;28;20022;-86
2023/12/09 01:36:24;;;;;;;32.35;15.43;;;4.30;99.90;;;;;;5006186;28;20493;-86
2023/12/09 01:38:49;;;;;;;25.42;13.80;;;4.30;99.90;;;;;;5018876;28;20030;-81
2023/12/09 01:41:15;;;;;;;27.65;14.40;;;4.30;99.90;;;;;;5015479;28;20042;-84
2023/12/09 01:43:42;;;;;;;26.20;11.52;;;4.30;99.90;;;;;;5021749;28;20033;-82
2023/12/09 01:46:11;;;;;;;20.27;11.15;;;4.30;99.90;;;;;;5019315;28;20029;-86
2023/12/09 01:48:37;;;;;;;22.27;12.38;;;4.30;99.90;;;;;;5021054;28;20025;-81
2023/12/09 01:51:03;;;;;;;20.65;10.73;;;4.30;99.90;;;;;;5021159;28;20629;-83
2023/12/09 01:53:30;;;;;;;24.52;12.23;;;4.40;99.90;;;;;;5019429;28;20033;-86
2023/12/09 01:56:01;;;;;;;20.65;11.20;;;4.40;99.90;;;;;;5026995;28;20048;-84
2023/12/09 01:58:26;;;;;;;23.30;11.82;;;4.50;99.90;;;;;;5024165;28;20033;-88
2023/12/09 02:00:53;;;;;;;17.38;10.05;;;4.40;99.90;;;;;;5025414;28;20051;-82
2023/12/09 02:03:20;;;;;;;20.20;10.20;;;4.40;99.90;;;;;;5023497;28;20034;-83
2023/12/09 02:05:46;;;;;;;22.52;10.27;;;4.40;99.90;;;;;;5016790;28;20564;-83
2023/12/09 02:08:12;;;;;;;18.27;10.38;;;4.50;99.90;;;;;;5025990;28;20029;-82
2023/12/09 02:10:38;;;;;;;18.08;10.90;;;4.50;99.90;;;;;;5027037;28;20049;-81
2023/12/09 02:13:40;;;;;;;18.85;10.98;;;4.60;99.90;;;;;;5024255;28;20037;-83
2023/12/09 02:16:16;;;;;;;19.33;11.38;;;4.50;99.90;;;;;;4977782;28;20400;-81
2023/12/09 02:18:45;;;;;;;16.67;9.75;;;4.50;99.90;;;;;;5012404;28;20033;-82
2023/12/09 02:21:11;;;;;;;18.25;10.75;;;4.50;99.90;;;;;;5021264;28;20037;-82
2023/12/09 02:23:36;;;;;;;17.17;10.68;;;4.50;99.90;;;;;;5023642;28;20491;-83
2023/12/09 02:26:10;;;;;;;18.20;10.93;;;4.50;99.90;;;;;;5016080;28;20117;-82
2023/12/09 02:28:43;;;;;;;16.80;9.45;;;4.50;99.90;;;;;;5025141;28;20455;-86
2023/12/09 02:31:21;;;;;;;20.08;10.15;;;4.50;99.90;;;;;;5018852;28;20033;-90
2023/12/09 02:33:47;;;;;;;13.88;9.57;;;4.50;99.90;;;;;;5025978;28;20384;-86
2023/12/09 02:36:19;;;;;;;19.52;11.25;;;4.50;99.90;;;;;;5025181;28;20026;-82
2023/12/09 02:38:46;;;;;;;20.25;11.15;;;4.50;99.90;;;;;;5022353;28;20386;-87
2023/12/09 02:41:12;;;;;;;18.52;11.15;;;4.50;99.90;;;;;;5024254;28;20085;-86
2023/12/09 02:43:40;;;;;;;20.88;12.77;;;4.50;99.90;;;;;;5003518;28;20057;-90
2023/12/09 02:46:06;;;;;;;15.50;10.43;;;4.50;99.90;;;;;;5004811;28;20026;-82
2023/12/09 02:48:31;;;;;;;18.92;12.25;;;4.40;99.90;;;;;;5003785;28;20026;-82
2023/12/09 02:50:57;;;;;;;19.77;11.48;;;4.40;99.90;;;;;;5003938;28;20029;-81
2023/12/09 02:53:23;;;;;;;19.65;11.25;;;4.40;99.90;;;;;;4998341;28;20399;-85
2023/12/09 02:55:48;;;;;;;18.45;10.70;;;4.40;99.90;;;;;;5002012;28;20245;-83
2023/12/09 02:58:15;;;;;;;18.42;9.55;;;4.40;99.90;;;;;;5001783;28;20252;-88
2023/12/09 03:00:40;;;;;;;13.23;8.85;;;4.40;99.90;;;;;;4999827;28;20041;-88
2023/12/09 03:03:06;;;;;;;18.10;9.73;;;4.50;99.90;;;;;;5002993;28;20387;-87
2023/12/09 03:05:31;;;;;;;17.17;8.38;;;4.50;99.90;;;;;;4997770;28;20023;-86
2023/12/09 03:07:57;;;;;;;13.52;7.80;;;4.50;99.90;;;;;;4994208;28;20192;-85
2023/12/09 03:10:22;;;;;;;14.02;7.72;;;4.50;99.90;;;;;;4994983;28;20033;-82
2023/12/09 03:12:48;;;;;;;10.90;7.47;;;4.50;99.90;;;;;;5005182;28;20033;-85
2023/12/09 03:15:14;;;;;;;11.13;6.95;;;4.50;99.90;;;;;;4992934;28;20117;-85
2023/12/09 03:17:40;;;;;;;10.50;6.72;;;4.50;99.90;;;;;;5003817;28;20511;-88
2023/12/09 03:20:08;;;;;;;9.82;6.53;;;4.50;99.90;;;;;;4994188;28;20026;-83
2023/12/09 03:22:34;;;;;;;11.40;7.18;;;4.50;99.90;;;;;;5005601;28;20112;-84
2023/12/09 03:25:00;;;;;;;10.02;6.28;;;4.50;99.90;;;;;;5004860;28;20113;-82
2023/12/09 03:27:26;;;;;;;11.68;7.13;;;4.50;99.90;;;;;;5001470;28;20033;-88
2023/12/09 03:29:51;;;;;;;13.68;6.38;;;4.50;99.90;;;;;;4994432;28;20034;-82
2023/12/09 03:32:17;;;;;;;11.30;7.65;;;4.50;99.90;;;;;;4994608;28;20204;-82
2023/12/09 03:34:44;;;;;;;9.80;6.53;;;4.50;99.90;;;;;;4997584;28;20033;-86
2023/12/09 03:37:09;;;;;;;10.27;6.38;;;4.50;99.90;;;;;;5002439;28;20105;-84
2023/12/09 03:39:35;;;;;;;9.57;5.35;;;4.50;99.90;;;;;;4977227;28;20046;-85
2023/12/09 03:42:01;;;;;;;8.85;5.65;;;4.50;99.90;;;;;;5006485;28;20474;-82
2023/12/09 03:44:26;;;;;;;7.93;5.75;;;4.50;99.90;;;;;;5012789;28;20025;-83
2023/12/09 03:46:52;;;;;;;6.65;4.93;;;4.60;99.90;;;;;;5013647;28;20028;-81
2023/12/09 03:49:17;;;;;;;9.25;5.60;;;4.60;99.90;;;;;;5002781;28;20032;-87
2023/12/09 03:51:43;;;;;;;8.85;5.38;;;4.60;99.90;;;;;;5011874;28;20096;-87
2023/12/09 03:54:09;;;;;;;12.82;6.28;;;4.50;99.90;;;;;;5024529;28;20037;-82
2023/12/09 03:56:34;;;;;;;9.13;6.18;;;4.50;99.90;;;;;;5026047;28;20462;-90
2023/12/09 03:59:00;;;;;;;10.65;6.45;;;4.50;99.90;;;;;;5013664;28;20080;-84
2023/12/09 04:01:26;;;;;;;12.88;6.05;;;4.40;99.90;;;;;;5006602;28;20042;-83
2023/12/09 04:03:51;;;;;;;8.02;5.55;;;4.40;99.90;;;;;;4982504;28;20098;-83
2023/12/09 04:06:17;;;;;;;9.15;5.93;;;4.40;99.90;;;;;;5007642;28;20029;-83
2023/12/09 04:08:43;;;;;;;11.13;5.85;;;4.40;99.90;;;;;;5004749;28;20469;-87
2023/12/09 04:11:09;;;;;;;9.57;5.63;;;4.40;99.90;;;;;;4995618;28;20030;-82
2023/12/09 04:13:34;;;;;;;7.95;5.82;;;4.30;99.90;;;;;;5013325;28;20108;-88
2023/12/09 04:16:00;;;;;;;7.72;6.28;;;4.30;99.90;;;;;;5002599;28;20387;-86
2023/12/09 04:18:26;;;;;;;14.00;7.10;;;4.20;99.90;;;;;;5004944;28;20156;-92
2023/12/09 04:20:52;;;;;;;10.07;7.10;;;4.20;99.90;;;;;;4998589;28;20512;-84
2023/12/09 04:23:18;;;;;;;13.88;8.77;;;4.10;99.90;;;;;;5008683;28;20032;-82
2023/12/09 04:25:45;;;;;;;14.95;8.57;;;4.10;99.90;;;;;;5018287;28;20052;-85
2023/12/09 04:28:11;;;;;;;14.40;8.50;;;4.00;99.90;;;;;;5009180;28;20480;-88
2023/12/09 04:30:37;;;;;;;16.67;8.95;;;4.00;99.90;;;;;;5006023;28;20114;-83
2023/12/09 04:33:03;;;;;;;13.30;8.50;;;4.00;99.90;;;;;;4996311;28;20036;-83
2023/12/09 04:35:29;;;;;;;11.15;7.32;;;3.90;99.90;;;;;;5007077;28;20104;-87
2023/12/09 04:37:55;;;;;;;12.23;7.90;;;3.90;99.90;;;;;;4995644;28;20117;-86
2023/12/09 04:40:21;;;;;;;12.90;7.55;;;3.90;99.90;;;;;;5007286;28;20040;-85
2023/12/09 04:42:47;;;;;;;12.65;7.63;;;3.90;99.90;;;;;;5017535;28;20132;-83
2023/12/09 04:45:13;;;;;;;10.70;7.28;;;3.90;99.90;;;;;;5016544;28;20029;-84
2023/12/09 04:47:39;;;;;;;13.73;7.82;;;3.80;99.90;;;;;;5024119;28;20087;-82
2023/12/09 04:50:08;;;;;;;13.18;7.80;;;3.80;99.90;;;;;;5022478;28;20222;-87
2023/12/09 04:52:34;;;;;;;11.35;6.68;;;3.80;99.90;;;;;;5023171;28;20540;-88
2023/12/09 04:54:59;;;;;;;11.20;7.40;;;3.80;99.90;;;;;;5021830;28;20029;-85
2023/12/09 04:57:25;;;;;;;11.07;7.32;;;3.80;99.90;;;;;;5014351;28;20503;-85
2023/12/09 04:59:51;;;;;;;12.30;7.13;;;3.80;99.90;;;;;;5017676;28;20029;-87
2023/12/09 05:02:16;;;;;;;14.85;7.55;;;3.80;99.90;;;;;;5013858;28;20040;-85
2023/12/09 05:04:42;;;;;;;12.38;6.97;;;3.80;99.90;;;;;;5021353;28;20750;-84
2023/12/09 05:07:07;;;;;;;11.68;6.07;;;3.80;99.90;;;;;;5015662;28;20029;-88
2023/12/09 05:09:33;;;;;;;9.60;6.50;;;3.90;99.90;;;;;;5013431;28;20025;-85
2023/12/09 05:11:59;;;;;;;11.10;6.22;;;3.90;99.90;;;;;;5024959;28;20053;-87
2023/12/09 05:14:26;;;;;;;9.55;5.80;;;3.90;99.90;;;;;;5021398;28;20022;-87
2023/12/09 05:16:52;;;;;;;8.85;5.95;;;3.90;99.90;;;;;;5018475;28;20091;-87
2023/12/09 05:19:21;;;;;;;9.32;6.25;;;3.90;99.90;;;;;;5015635;28;20021;-95
2023/12/09 05:21:46;;;;;;;12.52;6.80;;;3.90;99.90;;;;;;5019094;28;20056;-86
2023/12/09 05:24:12;;;;;;;11.88;6.93;;;3.90;99.90;;;;;;5024171;28;20025;-81
2023/12/09 05:26:41;;;;;;;10.57;6.93;;;3.90;99.90;;;;;;5019376;28;20112;-88
2023/12/09 05:29:07;;;;;;;10.77;7.18;;;3.90;99.90;;;;;;5018950;28;20396;-84
2023/12/09 05:31:32;;;;;;;8.98;6.20;;;3.90;99.90;;;;;;5027649;28;20029;-91
2023/12/09 05:33:58;;;;;;;9.30;5.63;;;3.90;99.90;;;;;;5020319;28;20037;-81
2023/12/09 05:36:23;;;;;;;9.93;5.70;;;3.90;99.90;;;;;;5023582;28;20025;-85
2023/12/09 05:38:49;;;;;;;7.60;5.20;;;3.90;99.90;;;;;;5020216;28;20112;-89
2023/12/09 05:41:15;;;;;;;7.75;4.78;;;3.90;99.90;;;;;;5019194;28;20204;-85
2023/12/09 05:43:43;;;;;;;9.55;4.53;;;4.00;99.90;;;;;;5023461;28;20115;-85
2023/12/09 05:46:08;;;;;;;9.18;4.57;;;4.00;99.90;;;;;;5021961;28;20121;-82
2023/12/09 05:48:34;;;;;;;7.93;4.38;;;4.10;99.90;;;;;;5024626;28;20112;-84
2023/12/09 05:51:00;;;;;;;5.72;3.63;;;4.10;99.90;;;;;;5025479;28;20025;-81
2023/12/09 05:53:26;;;;;;;8.23;4.32;;;4.10;99.90;;;;;;5008889;28;20032;-83
2023/12/09 05:55:52;;;;;;;6.80;4.47;;;4.10;99.90;;;;;;5017850;28;20034;-89
2023/12/09 05:58:18;;;;;;;6.93;3.70;;;4.20;99.90;;;;;;5012208;28;20018;-82
2023/12/09 06:00:45;;;;;;;9.00;4.00;;;4.10;99.90;;;;;;5002615;28;20041;-84
2023/12/09 06:03:11;;;;;;;9.30;4.75;;;4.10;99.90;;;;;;5023203;28;20056;-83
2023/12/09 06:05:36;;;;;;;6.90;5.10;;;4.10;99.90;;;;;;5022504;28;20060;-83
2023/12/09 06:08:02;;;;;;;9.25;5.93;;;4.10;99.90;;;;;;5005048;28;20036;-82
2023/12/09 06:10:28;;;;;;;10.38;5.57;;;4.00;99.90;;;;;;5022264;28;20033;-85
2023/12/09 06:12:53;;;;;;;12.35;7.78;;;4.00;99.90;;;;;;5021722;28;20026;-86
2023/12/09 06:15:19;;;;;;;12.02;6.65;;;4.00;99.90;;;;;;5022859;28;20409;-86
2023/12/09 06:17:45;;;;;;;12.82;7.40;;;4.00;99.90;;;;;;5021990;28;20104;-92
2023/12/09 06:20:10;;;;;;;17.52;8.88;;;4.00;99.90;;;;;;5023554;28;20033;-87
2023/12/09 06:22:39;;;;;;;15.43;9.35;;;4.00;99.90;;;;;;5026090;28;20072;-85
2023/12/09 06:25:10;;;;;;;17.50;8.38;;;3.90;99.90;;;;;;5004469;28;20091;-81
2023/12/09 06:27:36;;;;;;;18.88;10.32;;;4.00;99.90;;;;;;5022512;28;20042;-88
2023/12/09 06:30:03;;;;;;;24.35;12.55;;;3.90;99.90;;;;;;5011489;28;20394;-85
2023/12/09 06:32:28;;;;;;;26.00;13.25;;;3.90;99.90;;;;;;5020110;28;20029;-84
2023/12/09 06:34:54;;;;;;;15.95;10.70;;;3.90;99.90;;;;;;4999557;28;20682;-82
2023/12/09 06:37:19;;;;;;;21.02;12.02;;;3.80;99.90;;;;;;5018725;28;20033;-82
2023/12/09 06:39:45;;;;;;;21.08;11.13;;;3.80;99.90;;;;;;5021642;28;20120;-89
2023/12/09 06:42:14;;;;;;;24.65;11.70;;;3.80;99.90;;;;;;5024331;28;20075;-90
2023/12/09 06:44:43;;;;;;;19.95;10.50;;;3.80;99.90;;;;;;5024917;28;20104;-90
2023/12/09 06:47:11;;;;;;;21.95;11.70;;;3.80;99.90;;;;;;5026509;28;20028;-85
2023/12/09 06:49:36;;;;;;;24.38;11.40;;;3.80;99.90;;;;;;5025085;28;20120;-84
2023/12/09 06:52:02;;;;;;;23.50;11.18;;;3.80;99.90;;;;;;5023312;28;20120;-85
2023/12/09 06:54:28;;;;;;;18.80;11.57;;;3.80;99.90;;;;;;5023534;28;20032;-84
2023/12/09 06:56:54;;;;;;;21.20;10.63;;;3.80;99.90;;;;;;5019648;28;20025;-85
2023/12/09 06:59:19;;;;;;;20.58;11.68;;;3.90;99.90;;;;;;5021175;28;20026;-84
2023/12/09 07:01:49;;;;;;;18.08;10.63;;;3.90;99.90;;;;;;5018401;28;20044;-86
2023/12/09 07:04:16;;;;;;;20.58;10.63;;;3.90;99.90;;;;;;5024799;28;20057;-85
2023/12/09 07:06:42;;;;;;;18.75;9.80;;;3.90;99.90;;;;;;5025312;28;20030;-86
2023/12/09 07:09:09;;;;;;;20.20;9.95;;;3.90;99.90;;;;;;5022088;28;20022;-91
2023/12/09 07:11:35;;;;;;;17.40;9.50;;;3.90;99.90;;;;;;5023545;28;20325;-88
2023/12/09 07:14:00;;;;;;;16.70;8.68;;;3.90;99.90;;;;;;5020140;28;20037;-84
2023/12/09 07:16:26;;;;;;;12.80;7.53;;;4.00;99.90;;;;;;5022202;28;20064;-80
2023/12/09 07:18:58;;;;;;;13.68;7.35;;;3.90;99.90;;;;;;5001800;28;20032;-87
2023/12/09 07:21:24;;;;;;;17.92;6.82;;;3.90;99.90;;;;;;5024585;28;20041;-88
2023/12/09 07:23:50;;;;;;;13.35;7.13;;;3.90;99.90;;;;;;5005056;28;20026;-85
2023/12/09 07:26:16;;;;;;;9.82;6.35;;;3.90;99.90;;;;;;5005947;28;20083;-84
2023/12/09 07:28:41;;;;;;;12.13;6.55;;;3.90;99.90;;;;;;5024112;28;20022;-86
2023/12/09 07:31:07;;;;;;;15.50;6.93;;;4.00;99.90;;;;;;5019899;28;20458;-84
2023/12/09 07:33:32;;;;;;;10.57;7.07;;;4.00;99.90;;;;;;5022542;28;20025;-85
2023/12/09 07:35:58;;;;;;;12.95;6.85;;;4.00;99.90;;;;;;5020756;28;20029;-81
2023/12/09 07:38:24;;;;;;;11.02;7.20;;;4.00;99.90;;;;;;5022114;28;20037;-90
2023/12/09 07:40:51;;;;;;;14.50;7.30;;;4.00;99.90;;;;;;5024849;28;20084;-86
2023/12/09 07:43:16;;;;;;;18.35;7.90;;;4.00;99.90;;;;;;5023783;28;20080;-81
2023/12/09 07:45:42;;;;;;;18.38;9.23;;;4.00;99.90;;;;;;5019861;28;20017;-89
2023/12/09 07:48:08;;;;;;;17.42;8.68;;;4.00;99.90;;;;;;5015210;28;20030;-82
2023/12/09 07:50:34;;;;;;;18.08;8.00;;;4.00;99.90;;;;;;5021261;28;20402;-83
2023/12/09 07:53:00;;;;;;;13.38;7.57;;;4.10;99.90;;;;;;5016958;28;20032;-90
2023/12/09 07:55:27;;;;;;;11.05;7.05;;;4.10;99.90;;;;;;5014750;28;20533;-85
2023/12/09 07:57:52;;;;;;;14.98;7.97;;;4.10;99.90;;;;;;5017587;28;20068;-82
2023/12/09 08:00:18;;;;;;;15.05;8.20;;;4.00;99.90;;;;;;5020446;28;20064;-85
2023/12/09 08:02:45;;;;;;;13.82;8.80;;;4.10;99.90;;;;;;5018141;28;20021;-86
2023/12/09 08:05:11;;;;;;;21.30;8.93;;;4.00;99.90;;;;;;5000582;28;20033;-84
2023/12/09 08:07:36;;;;;;;13.57;7.93;;;4.00;99.90;;;;;;5021046;28;20025;-84
2023/12/09 08:10:02;;;;;;;13.50;8.23;;;4.00;99.90;;;;;;5020164;28;20136;-85
2023/12/09 08:12:28;;;;;;;12.95;6.85;;;4.00;99.90;;;;;;5015327;28;20036;-84
2023/12/09 08:14:54;;;;;;;13.60;5.88;;;4.00;99.90;;;;;;5020026;28;20082;-88
2023/12/09 08:17:19;;;;;;;11.18;6.93;;;4.10;99.90;;;;;;5023826;28;20163;-85
2023/12/09 08:19:46;;;;;;;12.93;7.05;;;4.20;99.90;;;;;;5024170;28;20036;-88
2023/12/09 08:22:12;;;;;;;19.40;7.03;;;4.20;99.90;;;;;;5025588;28;20065;-83
2023/12/09 08:24:37;;;;;;;14.43;7.63;;;4.20;99.90;;;;;;5023905;28;20521;-83
2023/12/09 08:27:03;;;;;;;16.88;7.03;;;4.20;99.90;;;;;;5025781;28;20064;-82
2023/12/09 08:29:29;;;;;;;15.48;7.03;;;4.20;99.90;;;;;;5025301;28;20034;-83
2023/12/09 08:31:56;;;;;;;15.18;7.75;;;4.30;99.90;;;;;;5024286;28;20033;-87
2023/12/09 08:34:22;;;;;;;10.52;7.03;;;4.40;99.90;;;;;;5025147;28;20112;-83
2023/12/09 08:36:47;;;;;;;20.30;8.02;;;4.30;99.90;;;;;;5023826;28;20049;-86
2023/12/09 08:39:14;;;;;;;17.55;8.40;;;4.30;99.90;;;;;;5005593;28;20451;-81
2023/12/09 08:41:39;;;;;;;12.63;7.05;;;4.40;99.90;;;;;;5017528;28;20046;-83
2023/12/09 08:44:08;;;;;;;16.00;7.35;;;4.30;99.90;;;;;;4992027;28;20055;-88
2023/12/09 08:46:34;;;;;;;12.55;8.63;;;4.30;99.90;;;;;;5003050;28;20034;-86
2023/12/09 08:48:59;;;;;;;15.25;8.40;;;4.30;99.90;;;;;;5003968;28;20038;-83
2023/12/09 08:51:25;;;;;;;13.48;8.13;;;4.30;99.90;;;;;;4998828;28;20021;-85
2023/12/09 08:53:50;;;;;;;13.90;7.53;;;4.30;99.90;;;;;;5004047;28;20097;-83
2023/12/09 08:56:16;;;;;;;13.85;7.57;;;4.30;99.90;;;;;;5005061;28;20025;-83
2023/12/09 08:58:42;;;;;;;13.85;7.72;;;4.30;99.90;;;;;;5004294;28;20037;-83
2023/12/09 09:01:08;;;;;;;12.15;7.82;;;4.30;99.90;;;;;;4990191;28;20072;-82
2023/12/09 09:03:33;;;;;;;16.73;7.88;;;4.30;99.90;;;;;;5000569;28;20422;-84
2023/12/09 09:05:59;;;;;;;17.23;8.40;;;4.40;99.90;;;;;;4996381;28;20030;-82
2023/12/09 09:08:26;;;;;;;20.98;8.23;;;4.40;99.90;;;;;;4983764;28;20026;-87
2023/12/09 09:10:51;;;;;;;12.77;6.78;;;4.30;99.90;;;;;;4984780;28;20503;-86
2023/12/09 09:13:17;;;;;;;8.95;6.13;;;4.40;99.90;;;;;;5002363;28;20124;-86
2023/12/09 09:15:43;;;;;;;17.75;6.90;;;4.40;99.90;;;;;;5000622;28;20027;-83
2023/12/09 09:18:08;;;;;;;12.40;6.60;;;4.40;99.90;;;;;;5001685;28;20526;-85
2023/12/09 09:20:34;;;;;;;14.30;6.35;;;4.40;99.90;;;;;;5002962;28;20034;-93
2023/12/09 09:23:00;;;;;;;15.85;7.18;;;4.50;99.90;;;;;;5004171;28;20092;-89
2023/12/09 09:25:26;;;;;;;14.13;6.55;;;4.50;99.90;;;;;;5003957;28;20507;-82
2023/12/09 09:27:52;;;;;;;16.08;6.18;;;4.50;99.90;;;;;;5001956;28;20080;-87
2023/12/09 09:30:20;;;;;;;9.57;5.18;;;4.50;99.90;;;;;;4977226;28;20081;-83
2023/12/09 09:32:47;;;;;;;13.23;6.68;;;4.60;99.90;;;;;;4999957;28;20030;-87
2023/12/09 09:35:12;;;;;;;14.45;6.35;;;4.60;99.90;;;;;;5000143;28;20515;-84
2023/12/09 09:37:38;;;;;;;12.70;5.28;;;4.60;99.90;;;;;;4998331;28;20057;-82
2023/12/09 09:40:04;;;;;;;13.48;6.10;;;4.60;99.90;;;;;;4999498;28;20041;-82
2023/12/09 09:42:34;;;;;;;7.32;5.22;;;4.60;99.90;;;;;;4995676;28;20046;-82
2023/12/09 09:45:20;;;;;;;9.35;4.85;;;4.60;99.90;;;;;;4980848;28;20468;-83
2023/12/09 09:47:50;;;;;;;8.48;5.25;;;4.60;99.90;;;;;;4998088;28;20037;-86
2023/12/09 09:50:23;;;;;;;15.80;5.45;;;4.60;99.90;;;;;;5001904;28;20029;-83
2023/12/09 09:52:50;;;;;;;8.93;5.07;;;4.70;99.90;;;;;;5002772;28;20399;-85
2023/12/09 09:55:21;;;;;;;10.70;4.63;;;4.60;99.90;;;;;;5005332;28;20057;-83
2023/12/09 09:57:48;;;;;;;16.05;4.93;;;4.60;99.90;;;;;;5003715;28;20458;-82
2023/12/09 10:00:15;;;;;;;14.35;4.68;;;4.60;99.90;;;;;;5004616;28;20022;-82
2023/12/09 10:02:46;;;;;;;10.05;4.68;;;4.70;99.90;;;;;;5003375;28;20025;-84
2023/12/09 10:05:14;;;;;;;8.48;4.53;;;4.70;99.90;;;;;;4992117;28;20053;-83
2023/12/09 10:07:40;;;;;;;13.52;7.05;;;4.70;99.90;;;;;;5004274;28;20030;-83
2023/12/09 10:10:07;;;;;;;10.60;6.20;;;4.70;99.90;;;;;;4985592;28;20038;-83
2023/12/09 10:12:33;;;;;;;9.13;4.35;;;4.80;99.90;;;;;;4990607;28;20037;-83
2023/12/09 10:15:03;;;;;;;11.57;6.15;;;4.90;99.90;;;;;;5002998;28;20100;-83
2023/12/09 10:17:31;;;;;;;8.30;4.40;;;4.90;99.90;;;;;;5003759;28;20041;-83
2023/12/09 10:19:57;;;;;;;7.32;3.80;;;5.10;99.90;;;;;;4987978;28;20037;-83
2023/12/09 10:22:27;;;;;;;11.93;5.05;;;5.20;99.90;;;;;;5004597;28;20507;-82
2023/12/09 10:24:53;;;;;;;11.07;5.10;;;5.30;99.90;;;;;;5004101;28;20038;-82
2023/12/09 10:27:20;;;;;;;14.43;5.57;;;5.40;99.90;;;;;;5005995;28;20121;-84
2023/12/09 10:29:46;;;;;;;15.27;6.78;;;5.50;99.90;;;;;;5007028;28;20117;-81
2023/12/09 10:32:12;;;;;;;14.13;5.78;;;5.50;99.90;;;;;;4983140;28;20498;-82
2023/12/09 10:34:39;;;;;;;12.77;4.90;;;5.50;99.90;;;;;;5007020;28;20274;-86
2023/12/09 10:37:12;;;;;;;7.65;4.50;;;5.60;99.90;;;;;;4999058;28;20033;-83
2023/12/09 10:39:42;;;;;;;8.68;4.32;;;5.70;99.90;;;;;;5007600;28;20112;-82
2023/12/09 10:42:09;;;;;;;12.95;4.88;;;5.60;99.90;;;;;;5017291;28;20058;-87
2023/12/09 10:44:35;;;;;;;10.50;4.80;;;5.70;99.90;;;;;;5027115;28;20083;-85
2023/12/09 10:47:00;;;;;;;12.75;4.85;;;5.60;99.90;;;;;;5008587;28;20025;-83
2023/12/09 10:49:26;;;;;;;7.28;4.43;;;5.70;99.90;;;;;;5009727;28;20021;-87
2023/12/09 10:51:51;;;;;;;10.38;5.10;;;5.70;99.90;;;;;;5026784;28;20029;-85
2023/12/09 10:54:17;;;;;;;10.45;4.75;;;5.70;99.90;;;;;;5024999;28;20378;-87
2023/12/09 10:56:45;;;;;;;16.63;5.15;;;5.60;99.90;;;;;;5025779;28;20063;-84
2023/12/09 10:59:13;;;;;;;7.13;4.30;;;5.60;99.90;;;;;;5025955;28;20117;-86
2023/12/09 11:01:41;;;;;;;11.15;4.90;;;5.50;99.90;;;;;;5026367;28;20040;-81
2023/12/09 11:04:08;;;;;;;15.02;5.68;;;5.40;99.90;;;;;;5026056;28;20555;-84
2023/12/09 11:06:36;;;;;;;14.30;5.50;;;5.40;99.90;;;;;;5023805;28;20067;-86
2023/12/09 11:09:05;;;;;;;9.80;4.80;;;5.40;99.90;;;;;;5024391;28;20082;-86
2023/12/09 11:11:31;;;;;;;14.48;6.40;;;5.40;99.90;;;;;;5008998;28;20006;-84
2023/12/09 11:13:58;;;;;;;14.85;5.07;;;5.30;99.90;;;;;;4998820;28;20057;-82
2023/12/09 11:16:27;;;;;;;10.18;4.07;;;5.30;99.90;;;;;;5027453;28;20021;-82
2023/12/09 11:18:57;;;;;;;12.68;5.05;;;5.30;99.90;;;;;;5025706;28;20033;-86
2023/12/09 11:21:28;;;;;;;6.90;4.68;;;5.30;99.90;;;;;;5009067;28;20469;-90
2023/12/09 11:23:55;;;;;;;12.63;5.07;;;5.30;99.90;;;;;;5025353;28;20052;-82
2023/12/09 11:26:31;;;;;;;7.60;4.18;;;5.30;99.90;;;;;;5024378;28;20029;-84
2023/12/09 11:29:04;;;;;;;8.10;4.50;;;5.30;99.90;;;;;;5005899;28;20484;-82
2023/12/09 11:31:35;;;;;;;11.02;4.28;;;5.30;99.90;;;;;;5024508;28;20115;-88
2023/12/09 11:34:08;;;;;;;9.75;5.03;;;5.30;99.90;;;;;;5023864;28;20040;-88
2023/12/09 11:36:38;;;;;;;13.52;4.35;;;5.20;99.90;;;;;;5025451;28;20036;-84
2023/12/09 11:39:09;;;;;;;6.43;3.72;;;5.20;99.90;;;;;;5008906;28;20025;-85
2023/12/09 11:41:39;;;;;;;12.63;5.05;;;5.20;99.90;;;;;;5025552;28;20076;-91
2023/12/09 11:44:06;;;;;;;10.70;4.38;;;5.20;99.90;;;;;;5018435;28;20033;-85
2023/12/09 11:46:33;;;;;;;8.93;4.13;;;5.20;99.90;;;;;;5008286;28;20030;-83
2023/12/09 11:49:01;;;;;;;14.73;4.35;;;5.20;99.90;;;;;;5005994;28;20038;-83
2023/12/09 11:51:27;;;;;;;11.10;4.88;;;5.20;99.90;;;;;;5025850;28;20113;-88
2023/12/09 11:54:00;;;;;;;7.38;4.15;;;5.20;99.90;;;;;;5025484;28;20037;-84
2023/12/09 11:56:27;;;;;;;15.30;4.68;;;5.30;99.90;;;;;;5025668;28;20550;-88
2023/12/09 11:58:53;;;;;;;8.27;4.53;;;5.30;99.90;;;;;;5025408;28;20056;-84
2023/12/09 12:01:20;;;;;;;11.05;4.80;;;5.30;99.90;;;;;;5025395;28;20049;-88
2023/12/09 12:03:47;;;;;;;10.10;4.32;;;5.30;99.90;;;;;;5023800;28;20061;-86
2023/12/09 12:06:14;;;;;;;14.48;4.40;;;5.30;99.90;;;;;;5024112;28;20093;-83
2023/12/09 12:08:44;;;;;;;10.40;4.45;;;5.40;99.90;;;;;;5023809;28;20561;-83
2023/12/09 12:11:10;;;;;;;11.95;4.22;;;5.50;99.90;;;;;;5024844;28;20475;-84
2023/12/09 12:13:36;;;;;;;12.32;3.95;;;5.50;99.90;;;;;;5024325;28;20022;-84
2023/12/09 12:16:02;;;;;;;6.78;3.63;;;5.50;99.90;;;;;;5025684;28;20095;-83
2023/12/09 12:18:32;;;;;;;10.27;3.63;;;5.60;99.90;;;;;;5025767;28;20028;-83
2023/12/09 12:20:58;;;;;;;9.38;4.63;;;5.60;99.90;;;;;;5006596;28;20041;-83
2023/12/09 12:23:23;;;;;;;9.20;4.38;;;5.60;99.90;;;;;;5026208;28;20014;-85
2023/12/09 12:25:50;;;;;;;12.43;3.90;;;5.60;99.90;;;;;;5024110;28;20033;-85
2023/12/09 12:28:16;;;;;;;10.85;4.75;;;5.60;99.90;;;;;;5025778;28;20398;-83
2023/12/09 12:30:42;;;;;;;8.45;4.20;;;5.60;99.90;;;;;;5025698;28;20032;-89
2023/12/09 12:33:08;;;;;;;13.30;4.65;;;5.60;99.90;;;;;;5016664;28;20040;-82
2023/12/09 12:35:33;;;;;;;11.43;4.97;;;5.60;99.90;;;;;;5025341;28;20026;-85
2023/12/09 12:37:59;;;;;;;12.13;4.80;;;5.60;99.90;;;;;;5024030;28;20087;-83
2023/12/09 12:40:26;;;;;;;8.20;4.40;;;5.50;99.90;;;;;;5022920;28;20076;-82
2023/12/09 12:42:52;;;;;;;10.70;4.80;;;5.50;99.90;;;;;;4989197;28;20045;-82
2023/12/09 12:45:19;;;;;;;12.27;4.38;;;5.50;99.90;;;;;;5001674;28;20526;-84